Billings, MT

9:02 PM MST on March 05, 2015 (GMT -0700)
South Big Horn County | Change Station
CLOSE
Current Station
Airport
Location: Greybull,
Elevation: 3934 ft
Nearby Weather Stations

Elev 3934 ft 44.52 °N, 108.08 °W | Updated 9 minutes ago

Overcast
Overcast
31 °F
Feels Like 24 °F
N
7
Wind Variable Wind from ESE

Today
High -- | Low -- °F
--% Chance of Precip.
Yesterday
High -- | Low -- °F
Precip. -- in
6:45 AM 6:05 PM
Full, 100% visible
Pressure 30.36 in
Visibility 10.0 miles
Clouds Clear
Windchill 24 °F
Dew Point 17 °F
Humidity 57%
Rainfall 0.00 in
Snow Depth Not available.
UV 0 out of 12
Pollen .30 out of 12
Air Quality Not available.
Flu Activity Not available.
METAR KGEY 060353Z AUTO 11006KT 10SM CLR M01/M08 A3023 RMK AO2 SLP280 T10061083

More Conditions Fewer Conditions

Pressure 30.36 in
Visibility 10.0 miles
Clouds Clear
Windchill 24 °F
Dew Point 17 °F
Humidity 57%
Rainfall 0.00 in
Snow Depth Not available.
UV 0 out of 12
Pollen .30 out of 12
Air Quality Not available.
Flu Activity Not available.
METAR KGEY 060353Z AUTO 11006KT 10SM CLR M01/M08 A3023 RMK AO2 SLP280 T10061083

More Conditions Fewer Conditions

10-Day Weather Forecast

Almanac

Astronomy

Mar. 05, 2015 Rise Set
Actual Time
Civil Twilight
Nautical Twilight
Astronomical Twilight
Moon
Length of Visible Light
Length of Day
Tomorrow will be .
, % of the Moon is Illuminated

Today's Extremes

State Highs State Lows

Community

WunderPhotos

Upload Photos

1,803,176 photos uploaded!

WunderBlogs® & News

Nearby

Air Quality

  Air Quality AQ Index Pollutant
Not available.

Snow Depth

Station Depth Elevation

Earthquake Activity

City Distance Mag. Time & Date
Minimum magnitude displayed is 2.5.

Coastal Water Temperatures

Place Temperature

Nearby Weather Stations